Edgar G. Obie (S71)
Chinook, MT
Field Elevation: 2416
Lat: 48°35.32N  Long: 109°15.02W
CTAF/Unicom Freq: 122.8000
   
    
Weather Advisories
2018-12-13   16:32 Z
Altimeter 29.89" Hg
Wind 240° @ 21 KT
Gusts 30 KT
Visibility 10 SM
Temperature 6° C (43° F)
Dewpoint -9° C (16° F)
Relative Humidity 35%
Density Altitude --
Condensation Altitude 9,600 feet
Wind Chill: 1° C (34° F)
Wind and Runways
Indicated Runway = 26
Headwind = 20 kt
Crosswind = 7 kt
History
 
 
 
More Info
NOAA Forecast
 
 
About Us
Belfort Instrument
 
 
FAA Disclaimer: The data displayed is for advisory purposes only and is not to be used for flight planning or operations. For official data, please call (not available) to hear the current automated AWOS voice message.
  METAR S71 131632Z AUTO 24021G30KT 10 SM 06/M09 A2989